sensor_id;sensor_type;location;lat;lon;timestamp;pressure;altitude;pressure_sealevel;temperature;humidity
55271;BME280;41132;47.162;9.470;2022-10-31T00:01:18;97037.44;;;10.98;100.00
55271;BME280;41132;47.162;9.470;2022-10-31T00:03:43;97033.19;;;10.87;100.00
55271;BME280;41132;47.162;9.470;2022-10-31T00:06:08;97052.16;;;10.81;100.00
55271;BME280;41132;47.162;9.470;2022-10-31T00:08:34;97049.94;;;10.86;100.00
55271;BME280;41132;47.162;9.470;2022-10-31T00:10:59;97052.16;;;10.81;100.00
55271;BME280;41132;47.162;9.470;2022-10-31T00:13:25;97041.44;;;10.55;100.00
55271;BME280;41132;47.162;9.470;2022-10-31T00:15:50;97036.38;;;10.54;100.00
55271;BME280;41132;47.162;9.470;2022-10-31T00:18:15;97038.91;;;10.73;100.00
55271;BME280;41132;47.162;9.470;2022-10-31T00:20:41;97029.41;;;10.62;100.00
55271;BME280;41132;47.162;9.470;2022-10-31T00:23:06;97038.50;;;10.78;100.00
55271;BME280;41132;47.162;9.470;2022-10-31T00:25:37;97048.81;;;10.89;100.00
55271;BME280;41132;47.162;9.470;2022-10-31T00:28:04;97041.22;;;10.86;100.00
55271;BME280;41132;47.162;9.470;2022-10-31T00:30:30;97022.22;;;10.64;100.00
55271;BME280;41132;47.162;9.470;2022-10-31T00:32:55;97035.44;;;10.82;100.00
55271;BME280;41132;47.162;9.470;2022-10-31T00:35:20;97036.34;;;10.63;100.00
55271;BME280;41132;47.162;9.470;2022-10-31T00:37:46;97031.25;;;10.52;100.00
55271;BME280;41132;47.162;9.470;2022-10-31T00:40:11;97024.31;;;10.51;100.00
55271;BME280;41132;47.162;9.470;2022-10-31T00:42:37;97031.78;;;10.56;100.00
55271;BME280;41132;47.162;9.470;2022-10-31T00:45:03;97019.50;;;10.56;100.00
55271;BME280;41132;47.162;9.470;2022-10-31T00:47:29;97020.03;;;10.70;100.00
55271;BME280;41132;47.162;9.470;2022-10-31T00:49:54;97031.09;;;10.63;100.00
55271;BME280;41132;47.162;9.470;2022-10-31T00:52:19;97031.66;;;10.57;100.00
55271;BME280;41132;47.162;9.470;2022-10-31T00:54:45;97032.63;;;10.56;100.00
55271;BME280;41132;47.162;9.470;2022-10-31T00:57:10;97041.72;;;10.62;100.00
55271;BME280;41132;47.162;9.470;2022-10-31T00:59:35;97012.66;;;10.36;100.00
55271;BME280;41132;47.162;9.470;2022-10-31T01:02:01;97027.41;;;10.27;100.00
55271;BME280;41132;47.162;9.470;2022-10-31T01:04:26;97025.91;;;10.34;100.00
55271;BME280;41132;47.162;9.470;2022-10-31T01:06:51;97015.66;;;10.21;100.00
55271;BME280;41132;47.162;9.470;2022-10-31T01:09:17;97026.72;;;10.35;100.00
55271;BME280;41132;47.162;9.470;2022-10-31T01:11:42;97020.78;;;10.42;100.00
55271;BME280;41132;47.162;9.470;2022-10-31T01:14:08;97022.97;;;10.28;100.00
55271;BME280;41132;47.162;9.470;2022-10-31T01:16:34;97018.16;;;10.23;100.00
55271;BME280;41132;47.162;9.470;2022-10-31T01:18:59;97014.25;;;10.47;100.00
55271;BME280;41132;47.162;9.470;2022-10-31T01:21:26;97030.16;;;10.25;100.00
55271;BME280;41132;47.162;9.470;2022-10-31T01:23:55;97026.81;;;10.53;100.00
55271;BME280;41132;47.162;9.470;2022-10-31T01:26:31;97015.66;;;10.21;100.00
55271;BME280;41132;47.162;9.470;2022-10-31T01:29:03;97023.97;;;10.27;100.00
55271;BME280;41132;47.162;9.470;2022-10-31T01:31:31;97011.41;;;10.30;100.00
55271;BME280;41132;47.162;9.470;2022-10-31T01:33:57;97016.94;;;10.17;100.00
55271;BME280;41132;47.162;9.470;2022-10-31T01:36:28;97022.72;;;10.11;100.00
55271;BME280;41132;47.162;9.470;2022-10-31T01:38:58;97019.56;;;9.98;100.00
55271;BME280;41132;47.162;9.470;2022-10-31T01:41:27;97012.94;;;10.13;100.00
55271;BME280;41132;47.162;9.470;2022-10-31T01:43:56;97010.97;;;10.25;100.00
55271;BME280;41132;47.162;9.470;2022-10-31T01:46:31;97004.63;;;10.37;100.00
55271;BME280;41132;47.162;9.470;2022-10-31T01:48:59;97004.50;;;10.29;100.00
55271;BME280;41132;47.162;9.470;2022-10-31T01:51:32;97004.75;;;10.26;100.00
55271;BME280;41132;47.162;9.470;2022-10-31T01:54:01;97013.47;;;10.17;100.00
55271;BME280;41132;47.162;9.470;2022-10-31T01:56:27;97008.66;;;10.32;100.00
55271;BME280;41132;47.162;9.470;2022-10-31T01:58:54;96995.25;;;10.35;100.00
55271;BME280;41132;47.162;9.470;2022-10-31T02:01:20;96999.28;;;10.29;100.00
55271;BME280;41132;47.162;9.470;2022-10-31T02:03:46;96996.75;;;10.08;100.00
55271;BME280;41132;47.162;9.470;2022-10-31T02:06:37;97008.38;;;10.06;100.00
55271;BME280;41132;47.162;9.470;2022-10-31T02:09:05;96999.13;;;9.92;100.00
55271;BME280;41132;47.162;9.470;2022-10-31T02:11:31;96994.47;;;9.95;100.00
55271;BME280;41132;47.162;9.470;2022-10-31T02:13:59;96994.47;;;9.95;100.00
55271;BME280;41132;47.162;9.470;2022-10-31T02:16:25;96991.00;;;9.85;100.00
55271;BME280;41132;47.162;9.470;2022-10-31T02:18:51;96988.13;;;9.88;100.00
55271;BME280;41132;47.162;9.470;2022-10-31T02:21:19;96981.47;;;9.94;100.00
55271;BME280;41132;47.162;9.470;2022-10-31T02:31:52;96977.59;;;10.08;100.00
55271;BME280;41132;47.162;9.470;2022-10-31T02:34:33;96978.84;;;10.13;100.00
55271;BME280;41132;47.162;9.470;2022-10-31T02:37:12;96973.03;;;10.10;100.00
55271;BME280;41132;47.162;9.470;2022-10-31T02:39:56;96974.69;;;10.20;100.00
55271;BME280;41132;47.162;9.470;2022-10-31T02:42:43;96973.31;;;10.07;100.00
55271;BME280;41132;47.162;9.470;2022-10-31T02:45:17;96972.63;;;10.04;100.00
55271;BME280;41132;47.162;9.470;2022-10-31T02:47:46;96975.97;;;9.77;100.00
55271;BME280;41132;47.162;9.470;2022-10-31T02:50:25;96977.34;;;9.91;100.00
55271;BME280;41132;47.162;9.470;2022-10-31T02:52:52;96974.31;;;9.86;100.00
55271;BME280;41132;47.162;9.470;2022-10-31T02:57:51;96961.91;;;9.88;100.00
55271;BME280;41132;47.162;9.470;2022-10-31T03:00:18;96965.38;;;9.79;100.00
55271;BME280;41132;47.162;9.470;2022-10-31T03:03:24;96968.41;;;9.74;100.00
55271;BME280;41132;47.162;9.470;2022-10-31T03:08:31;96977.09;;;9.75;100.00
55271;BME280;41132;47.162;9.470;2022-10-31T03:11:05;96983.56;;;9.80;100.00
55271;BME280;41132;47.162;9.470;2022-10-31T03:13:54;96982.88;;;9.78;100.00
55271;BME280;41132;47.162;9.470;2022-10-31T03:19:08;96978.75;;;9.86;100.00
55271;BME280;41132;47.162;9.470;2022-10-31T03:21:42;96979.72;;;9.65;100.00
55271;BME280;41132;47.162;9.470;2022-10-31T03:24:11;96975.72;;;9.61;100.00
55271;BME280;41132;47.162;9.470;2022-10-31T03:26:41;96972.13;;;9.62;100.00
55271;BME280;41132;47.162;9.470;2022-10-31T03:29:10;96983.56;;;9.61;100.00
55271;BME280;41132;47.162;9.470;2022-10-31T03:31:40;96973.22;;;9.59;100.00
55271;BME280;41132;47.162;9.470;2022-10-31T03:34:08;96972.53;;;9.57;100.00
55271;BME280;41132;47.162;9.470;2022-10-31T03:36:37;96981.34;;;9.66;100.00
55271;BME280;41132;47.162;9.470;2022-10-31T03:39:05;96977.34;;;9.72;100.00
55271;BME280;41132;47.162;9.470;2022-10-31T03:42:11;96984.38;;;9.91;100.00
55271;BME280;41132;47.162;9.470;2022-10-31T03:44:35;96980.81;;;9.72;100.00
55271;BME280;41132;47.162;9.470;2022-10-31T03:47:03;96983.84;;;9.77;100.00
55271;BME280;41132;47.162;9.470;2022-10-31T03:49:29;96973.22;;;9.69;100.00
55271;BME280;41132;47.162;9.470;2022-10-31T03:52:01;96978.88;;;9.84;100.00
55271;BME280;41132;47.162;9.470;2022-10-31T03:54:55;96976.91;;;9.96;100.00
55271;BME280;41132;47.162;9.470;2022-10-31T04:00:08;96977.38;;;9.81;100.00
55271;BME280;41132;47.162;9.470;2022-10-31T04:02:37;96966.59;;;9.75;100.00
55271;BME280;41132;47.162;9.470;2022-10-31T04:05:04;96977.75;;;9.87;100.00
55271;BME280;41132;47.162;9.470;2022-10-31T04:07:34;96977.09;;;9.75;100.00
55271;BME280;41132;47.162;9.470;2022-10-31T04:10:04;96967.81;;;9.80;100.00
55271;BME280;41132;47.162;9.470;2022-10-31T04:12:32;96961.34;;;9.75;100.00
55271;BME280;41132;47.162;9.470;2022-10-31T04:15:00;96972.94;;;9.72;100.00
55271;BME280;41132;47.162;9.470;2022-10-31T04:17:29;96967.56;;;9.64;100.00
55271;BME280;41132;47.162;9.470;2022-10-31T04:19:59;96970.88;;;9.56;100.00
55271;BME280;41132;47.162;9.470;2022-10-31T04:22:24;96972.41;;;9.49;100.00
55271;BME280;41132;47.162;9.470;2022-10-31T04:24:50;96964.94;;;9.54;100.00
55271;BME280;41132;47.162;9.470;2022-10-31T04:27:15;96968.69;;;9.52;100.00
55271;BME280;41132;47.162;9.470;2022-10-31T04:29:40;96966.88;;;9.52;100.00
55271;BME280;41132;47.162;9.470;2022-10-31T04:32:05;96964.38;;;9.41;100.00
55271;BME280;41132;47.162;9.470;2022-10-31T04:34:31;96967.28;;;9.48;100.00
55271;BME280;41132;47.162;9.470;2022-10-31T04:36:56;96948.97;;;9.38;100.00
55271;BME280;41132;47.162;9.470;2022-10-31T04:39:21;96953.91;;;9.31;100.00
55271;BME280;41132;47.162;9.470;2022-10-31T04:41:47;96958.31;;;9.50;100.00
55271;BME280;41132;47.162;9.470;2022-10-31T04:44:12;96940.97;;;9.49;100.00
55271;BME280;41132;47.162;9.470;2022-10-31T04:46:37;96951.25;;;9.22;100.00
55271;BME280;41132;47.162;9.470;2022-10-31T04:49:03;96948.53;;;9.43;100.00
55271;BME280;41132;47.162;9.470;2022-10-31T04:51:28;96946.88;;;9.32;100.00
55271;BME280;41132;47.162;9.470;2022-10-31T04:53:53;96944.94;;;9.34;100.00
55271;BME280;41132;47.162;9.470;2022-10-31T04:56:18;96945.34;;;9.29;100.00
55271;BME280;41132;47.162;9.470;2022-10-31T04:58:44;96951.97;;;9.43;100.00
55271;BME280;41132;47.162;9.470;2022-10-31T05:01:09;96938.03;;;9.23;100.00
55271;BME280;41132;47.162;9.470;2022-10-31T05:03:35;96938.03;;;9.13;100.00
55271;BME280;41132;47.162;9.470;2022-10-31T05:06:00;96934.31;;;9.26;100.00
55271;BME280;41132;47.162;9.470;2022-10-31T05:08:25;96942.56;;;9.11;100.00
55271;BME280;41132;47.162;9.470;2022-10-31T05:10:50;96937.34;;;9.31;100.00
55271;BME280;41132;47.162;9.470;2022-10-31T05:13:17;96923.56;;;9.29;100.00
55271;BME280;41132;47.162;9.470;2022-10-31T05:15:42;96931.25;;;9.01;100.00
55271;BME280;41132;47.162;9.470;2022-10-31T05:18:07;96910.41;;;8.90;100.00
55271;BME280;41132;47.162;9.470;2022-10-31T05:20:33;96903.72;;;8.97;100.00
55271;BME280;41132;47.162;9.470;2022-10-31T05:22:59;96926.88;;;9.21;100.00
55271;BME280;41132;47.162;9.470;2022-10-31T05:25:26;96907.09;;;8.88;100.00
55271;BME280;41132;47.162;9.470;2022-10-31T05:27:53;96928.22;;;9.06;100.00
55271;BME280;41132;47.162;9.470;2022-10-31T05:30:25;96902.44;;;8.82;100.00
55271;BME280;41132;47.162;9.470;2022-10-31T05:32:51;96910.00;;;8.85;100.00
55271;BME280;41132;47.162;9.470;2022-10-31T05:35:19;96911.28;;;9.10;100.00
55271;BME280;41132;47.162;9.470;2022-10-31T05:37:45;96917.50;;;9.28;100.00
55271;BME280;41132;47.162;9.470;2022-10-31T05:40:11;96902.72;;;8.98;100.00
55271;BME280;41132;47.162;9.470;2022-10-31T05:42:41;96896.66;;;8.97;100.00
55271;BME280;41132;47.162;9.470;2022-10-31T05:45:09;96907.44;;;9.14;100.00
55271;BME280;41132;47.162;9.470;2022-10-31T05:47:35;96903.72;;;9.07;100.00
55271;BME280;41132;47.162;9.470;2022-10-31T05:50:00;96893.38;;;9.05;100.00
55271;BME280;41132;47.162;9.470;2022-10-31T05:52:25;96881.63;;;8.90;100.00
55271;BME280;41132;47.162;9.470;2022-10-31T05:54:51;96890.88;;;8.94;100.00
55271;BME280;41132;47.162;9.470;2022-10-31T05:57:16;96886.06;;;9.09;100.00
55271;BME280;41132;47.162;9.470;2022-10-31T05:59:41;96891.28;;;8.99;100.00
55271;BME280;41132;47.162;9.470;2022-10-31T06:02:07;96900.06;;;8.69;100.00
55271;BME280;41132;47.162;9.470;2022-10-31T06:04:32;96909.69;;;8.68;100.00
55271;BME280;41132;47.162;9.470;2022-10-31T06:06:58;96888.38;;;8.83;100.00
55271;BME280;41132;47.162;9.470;2022-10-31T06:09:23;96892.94;;;9.00;100.00
55271;BME280;41132;47.162;9.470;2022-10-31T06:11:48;96895.16;;;8.95;100.00
55271;BME280;41132;47.162;9.470;2022-10-31T06:14:14;96892.25;;;8.98;100.00
55271;BME280;41132;47.162;9.470;2022-10-31T06:16:39;96895.41;;;8.82;100.00
55271;BME280;41132;47.162;9.470;2022-10-31T06:19:04;96909.72;;;8.78;100.00
55271;BME280;41132;47.162;9.470;2022-10-31T06:21:30;96912.03;;;8.62;100.00
55271;BME280;41132;47.162;9.470;2022-10-31T06:23:55;96902.84;;;8.96;100.00
55271;BME280;41132;47.162;9.470;2022-10-31T06:26:20;96910.56;;;8.88;100.00
55271;BME280;41132;47.162;9.470;2022-10-31T06:28:46;96918.84;;;8.84;100.00
55271;BME280;41132;47.162;9.470;2022-10-31T06:31:11;96886.75;;;8.41;100.00
55271;BME280;41132;47.162;9.470;2022-10-31T06:33:36;96911.59;;;8.56;100.00
55271;BME280;41132;47.162;9.470;2022-10-31T06:36:02;96883.41;;;8.70;100.00
55271;BME280;41132;47.162;9.470;2022-10-31T06:38:28;96904.44;;;8.59;100.00
55271;BME280;41132;47.162;9.470;2022-10-31T06:40:54;96895.09;;;8.66;100.00
55271;BME280;41132;47.162;9.470;2022-10-31T06:43:20;96903.53;;;8.79;100.00
55271;BME280;41132;47.162;9.470;2022-10-31T06:45:47;96890.44;;;8.79;100.00
55271;BME280;41132;47.162;9.470;2022-10-31T06:48:12;96898.84;;;8.73;100.00
55271;BME280;41132;47.162;9.470;2022-10-31T06:50:38;96904.91;;;8.83;100.00
55271;BME280;41132;47.162;9.470;2022-10-31T06:53:03;96905.59;;;8.85;100.00
55271;BME280;41132;47.162;9.470;2022-10-31T06:55:28;96896.50;;;8.99;100.00
55271;BME280;41132;47.162;9.470;2022-10-31T06:57:55;96896.25;;;9.02;100.00
55271;BME280;41132;47.162;9.470;2022-10-31T07:00:22;96907.31;;;9.15;100.00
55271;BME280;41132;47.162;9.470;2022-10-31T07:05:23;96903.00;;;9.24;100.00
55271;BME280;41132;47.162;9.470;2022-10-31T07:07:56;96908.69;;;9.29;100.00
55271;BME280;41132;47.162;9.470;2022-10-31T07:10:23;96915.31;;;9.33;100.00
55271;BME280;41132;47.162;9.470;2022-10-31T07:12:56;96907.28;;;9.45;100.00
55271;BME280;41132;47.162;9.470;2022-10-31T07:15:23;96902.59;;;9.58;100.00
55271;BME280;41132;47.162;9.470;2022-10-31T07:17:49;96893.78;;;9.59;100.00
55271;BME280;41132;47.162;9.470;2022-10-31T07:20:14;96899.56;;;9.53;100.00
55271;BME280;41132;47.162;9.470;2022-10-31T07:22:40;96902.88;;;9.74;100.00
55271;BME280;41132;47.162;9.470;2022-10-31T07:25:05;96898.28;;;9.86;100.00
55271;BME280;41132;47.162;9.470;2022-10-31T07:27:38;96910.13;;;10.00;100.00
55271;BME280;41132;47.162;9.470;2022-10-31T07:30:05;96898.06;;;10.17;100.00
55271;BME280;41132;47.162;9.470;2022-10-31T07:32:38;96899.00;;;10.25;100.00
55271;BME280;41132;47.162;9.470;2022-10-31T07:35:04;96900.41;;;10.30;100.00
55271;BME280;41132;47.162;9.470;2022-10-31T07:37:29;96912.78;;;10.28;100.00
55271;BME280;41132;47.162;9.470;2022-10-31T07:39:54;96908.66;;;10.25;100.00
55271;BME280;41132;47.162;9.470;2022-10-31T07:42:19;96894.44;;;10.28;100.00
55271;BME280;41132;47.162;9.470;2022-10-31T07:44:45;96900.22;;;10.41;100.00
55271;BME280;41132;47.162;9.470;2022-10-31T07:47:10;96900.84;;;10.53;100.00
55271;BME280;41132;47.162;9.470;2022-10-31T07:49:35;96900.84;;;10.53;100.00
55271;BME280;41132;47.162;9.470;2022-10-31T07:52:01;96901.13;;;10.77;100.00
55271;BME280;41132;47.162;9.470;2022-10-31T07:54:26;96905.16;;;10.99;100.00
55271;BME280;41132;47.162;9.470;2022-10-31T07:56:51;96902.06;;;10.86;100.00
55271;BME280;41132;47.162;9.470;2022-10-31T07:59:17;96884.84;;;10.74;100.00
55271;BME280;41132;47.162;9.470;2022-10-31T08:01:42;96878.72;;;10.83;100.00
55271;BME280;41132;47.162;9.470;2022-10-31T08:04:07;96890.81;;;10.94;100.00
55271;BME280;41132;47.162;9.470;2022-10-31T08:06:33;96894.34;;;11.02;100.00
55271;BME280;41132;47.162;9.470;2022-10-31T08:08:59;96896.91;;;11.12;100.00
55271;BME280;41132;47.162;9.470;2022-10-31T08:11:24;96896.00;;;11.21;100.00
55271;BME280;41132;47.162;9.470;2022-10-31T08:13:50;96876.47;;;11.24;100.00
55271;BME280;41132;47.162;9.470;2022-10-31T08:16:15;96879.31;;;11.66;100.00
55271;BME280;41132;47.162;9.470;2022-10-31T08:18:40;96882.47;;;11.52;100.00
55271;BME280;41132;47.162;9.470;2022-10-31T08:21:05;96878.13;;;11.61;100.00
55271;BME280;41132;47.162;9.470;2022-10-31T08:23:31;96889.22;;;11.73;100.00
55271;BME280;41132;47.162;9.470;2022-10-31T08:25:57;96872.06;;;11.86;100.00
55271;BME280;41132;47.162;9.470;2022-10-31T08:28:22;96883.03;;;12.00;100.00
55271;BME280;41132;47.162;9.470;2022-10-31T08:30:47;96873.25;;;12.18;100.00
55271;BME280;41132;47.162;9.470;2022-10-31T08:33:15;96860.50;;;12.31;100.00
55271;BME280;41132;47.162;9.470;2022-10-31T08:35:42;96865.59;;;12.33;100.00
55271;BME280;41132;47.162;9.470;2022-10-31T08:38:09;96861.00;;;12.35;100.00
55271;BME280;41132;47.162;9.470;2022-10-31T08:40:35;96861.38;;;12.48;100.00
55271;BME280;41132;47.162;9.470;2022-10-31T08:43:12;96865.34;;;12.52;100.00
55271;BME280;41132;47.162;9.470;2022-10-31T08:45:38;96845.63;;;12.65;100.00
55271;BME280;41132;47.162;9.470;2022-10-31T08:48:06;96858.34;;;12.78;100.00
55271;BME280;41132;47.162;9.470;2022-10-31T08:50:33;96849.50;;;12.95;100.00
55271;BME280;41132;47.162;9.470;2022-10-31T08:53:00;96849.81;;;12.84;100.00
55271;BME280;41132;47.162;9.470;2022-10-31T08:55:26;96839.31;;;13.00;100.00
55271;BME280;41132;47.162;9.470;2022-10-31T08:57:58;96823.66;;;12.90;100.00
55271;BME280;41132;47.162;9.470;2022-10-31T09:00:24;96843.63;;;13.18;100.00
55271;BME280;41132;47.162;9.470;2022-10-31T09:03:00;96837.38;;;13.43;100.00
55271;BME280;41132;47.162;9.470;2022-10-31T09:05:27;96826.03;;;13.43;100.00
55271;BME280;41132;47.162;9.470;2022-10-31T09:07:56;96835.41;;;13.62;100.00
55271;BME280;41132;47.162;9.470;2022-10-31T09:10:22;96819.88;;;13.67;100.00
55271;BME280;41132;47.162;9.470;2022-10-31T09:12:54;96826.28;;;13.81;100.00
55271;BME280;41132;47.162;9.470;2022-10-31T09:15:19;96815.47;;;14.23;100.00
55271;BME280;41132;47.162;9.470;2022-10-31T09:17:48;96808.91;;;14.11;100.00
55271;BME280;41132;47.162;9.470;2022-10-31T09:20:14;96813.03;;;14.13;100.00
55271;BME280;41132;47.162;9.470;2022-10-31T09:22:39;96817.16;;;14.16;100.00
55271;BME280;41132;47.162;9.470;2022-10-31T09:25:04;96807.91;;;14.20;100.00
55271;BME280;41132;47.162;9.470;2022-10-31T09:27:30;96817.63;;;14.19;100.00
55271;BME280;41132;47.162;9.470;2022-10-31T09:29:55;96799.34;;;14.49;100.00
55271;BME280;41132;47.162;9.470;2022-10-31T09:32:20;96802.22;;;14.71;100.00
55271;BME280;41132;47.162;9.470;2022-10-31T09:34:46;96814.34;;;14.65;100.00
55271;BME280;41132;47.162;9.470;2022-10-31T09:37:11;96797.81;;;14.63;100.00
55271;BME280;41132;47.162;9.470;2022-10-31T09:39:36;96807.91;;;14.59;100.00
55271;BME280;41132;47.162;9.470;2022-10-31T09:42:09;96811.38;;;14.52;100.00
55271;BME280;41132;47.162;9.470;2022-10-31T09:50:28;96801.53;;;14.77;100.00
55271;BME280;41132;47.162;9.470;2022-10-31T09:53:04;96808.91;;;14.58;100.00
55271;BME280;41132;47.162;9.470;2022-10-31T09:55:47;96810.69;;;14.66;100.00
55271;BME280;41132;47.162;9.470;2022-10-31T09:58:17;96808.91;;;14.58;100.00
55271;BME280;41132;47.162;9.470;2022-10-31T10:00:45;96812.88;;;14.63;100.00
55271;BME280;41132;47.162;9.470;2022-10-31T10:03:29;96791.72;;;14.63;100.00
55271;BME280;41132;47.162;9.470;2022-10-31T10:06:04;96821.16;;;14.82;100.00
55271;BME280;41132;47.162;9.470;2022-10-31T10:08:32;96804.47;;;14.82;100.00
55271;BME280;41132;47.162;9.470;2022-10-31T10:11:29;96811.94;;;14.78;100.00
55271;BME280;41132;47.162;9.470;2022-10-31T10:30:21;96807.78;;;14.84;100.00
55271;BME280;41132;47.162;9.470;2022-10-31T10:32:52;96811.47;;;14.75;100.00
55271;BME280;41132;47.162;9.470;2022-10-31T10:35:31;96812.06;;;14.46;100.00
55271;BME280;41132;47.162;9.470;2022-10-31T10:38:11;96809.06;;;14.57;100.00
55271;BME280;41132;47.162;9.470;2022-10-31T10:40:37;96800.94;;;14.27;100.00
55271;BME280;41132;47.162;9.470;2022-10-31T10:43:37;96810.38;;;14.22;100.00
55271;BME280;41132;47.162;9.470;2022-10-31T10:49:30;96803.94;;;14.24;100.00
55271;BME280;41132;47.162;9.470;2022-10-31T10:55:03;96803.66;;;14.11;100.00
55271;BME280;41132;47.162;9.470;2022-10-31T10:57:57;96801.59;;;14.21;100.00
55271;BME280;41132;47.162;9.470;2022-10-31T11:00:26;96800.66;;;14.14;100.00
55271;BME280;41132;47.162;9.470;2022-10-31T11:02:53;96801.66;;;14.05;100.00
55271;BME280;41132;47.162;9.470;2022-10-31T11:07:53;96778.78;;;13.89;100.00
55271;BME280;41132;47.162;9.470;2022-10-31T11:10:19;96782.22;;;14.06;100.00
55271;BME280;41132;47.162;9.470;2022-10-31T11:12:59;96787.59;;;14.20;100.00
55271;BME280;41132;47.162;9.470;2022-10-31T11:15:27;96783.03;;;14.06;100.00
55271;BME280;41132;47.162;9.470;2022-10-31T11:17:54;96787.38;;;13.91;100.00
55271;BME280;41132;47.162;9.470;2022-10-31T11:22:46;96785.75;;;13.73;100.00
55271;BME280;41132;47.162;9.470;2022-10-31T11:27:43;96767.13;;;13.67;100.00
55271;BME280;41132;47.162;9.470;2022-10-31T11:30:09;96787.72;;;13.71;100.00
55271;BME280;41132;47.162;9.470;2022-10-31T11:32:34;96772.91;;;13.70;100.00
55271;BME280;41132;47.162;9.470;2022-10-31T11:35:02;96784.13;;;13.72;100.00
55271;BME280;41132;47.162;9.470;2022-10-31T11:37:41;96783.31;;;13.72;100.00
55271;BME280;41132;47.162;9.470;2022-10-31T11:40:15;96783.25;;;13.80;100.00
55271;BME280;41132;47.162;9.470;2022-10-31T11:42:42;96781.84;;;13.61;100.00
55271;BME280;41132;47.162;9.470;2022-10-31T11:45:15;96785.28;;;13.70;100.00
55271;BME280;41132;47.162;9.470;2022-10-31T11:47:49;96779.34;;;13.60;100.00
55271;BME280;41132;47.162;9.470;2022-10-31T11:50:21;96784.97;;;13.48;100.00
55271;BME280;41132;47.162;9.470;2022-10-31T11:52:48;96778.38;;;13.44;100.00
55271;BME280;41132;47.162;9.470;2022-10-31T11:55:17;96782.03;;;13.51;100.00
55271;BME280;41132;47.162;9.470;2022-10-31T11:57:54;96767.69;;;13.54;100.00
55271;BME280;41132;47.162;9.470;2022-10-31T12:00:28;96776.25;;;13.56;100.00
55271;BME280;41132;47.162;9.470;2022-10-31T12:05:58;96767.16;;;13.26;100.00
55271;BME280;41132;47.162;9.470;2022-10-31T12:08:29;96762.28;;;13.31;100.00
55271;BME280;41132;47.162;9.470;2022-10-31T12:18:56;96761.91;;;13.26;100.00
55271;BME280;41132;47.162;9.470;2022-10-31T12:29:30;96749.41;;;13.28;100.00
55271;BME280;41132;47.162;9.470;2022-10-31T12:32:20;96745.31;;;13.33;100.00
55271;BME280;41132;47.162;9.470;2022-10-31T12:40:49;96725.53;;;13.13;100.00
55271;BME280;41132;47.162;9.470;2022-10-31T12:43:34;96729.78;;;13.22;100.00
55271;BME280;41132;47.162;9.470;2022-10-31T12:46:02;96721.72;;;13.15;100.00
55271;BME280;41132;47.162;9.470;2022-10-31T12:51:37;96729.81;;;13.06;100.00
55271;BME280;41132;47.162;9.470;2022-10-31T12:59:54;96710.03;;;13.10;100.00
55271;BME280;41132;47.162;9.470;2022-10-31T13:05:33;96702.63;;;13.05;100.00
55271;BME280;41132;47.162;9.470;2022-10-31T13:08:04;96714.16;;;13.04;100.00
55271;BME280;41132;47.162;9.470;2022-10-31T13:10:42;96699.47;;;13.10;100.00
55271;BME280;41132;47.162;9.470;2022-10-31T13:13:40;96692.75;;;13.32;100.00
55271;BME280;41132;47.162;9.470;2022-10-31T13:16:18;96681.84;;;13.27;100.00
55271;BME280;41132;47.162;9.470;2022-10-31T13:18:47;96692.41;;;13.35;100.00
55271;BME280;41132;47.162;9.470;2022-10-31T13:21:22;96684.31;;;13.36;100.00
55271;BME280;41132;47.162;9.470;2022-10-31T13:23:50;96679.81;;;13.53;100.00
55271;BME280;41132;47.162;9.470;2022-10-31T13:26:37;96675.56;;;13.44;100.00
55271;BME280;41132;47.162;9.470;2022-10-31T13:29:32;96673.28;;;13.41;100.00
55271;BME280;41132;47.162;9.470;2022-10-31T13:31:59;96675.91;;;13.41;100.00
55271;BME280;41132;47.162;9.470;2022-10-31T13:34:29;96673.06;;;13.51;100.00
55271;BME280;41132;47.162;9.470;2022-10-31T13:37:11;96661.69;;;13.58;100.00
55271;BME280;41132;47.162;9.470;2022-10-31T13:42:52;96670.53;;;13.74;100.00
55271;BME280;41132;47.162;9.470;2022-10-31T13:45:24;96659.22;;;13.57;100.00
55271;BME280;41132;47.162;9.470;2022-10-31T13:50:41;96665.13;;;13.67;100.00
55271;BME280;41132;47.162;9.470;2022-10-31T13:55:44;96651.72;;;13.77;100.00
55271;BME280;41132;47.162;9.470;2022-10-31T13:58:23;96651.38;;;13.80;100.00
55271;BME280;41132;47.162;9.470;2022-10-31T14:03:38;96655.84;;;13.79;100.00
55271;BME280;41132;47.162;9.470;2022-10-31T14:06:05;96647.44;;;13.76;100.00
55271;BME280;41132;47.162;9.470;2022-10-31T14:08:34;96645.13;;;13.81;100.00
55271;BME280;41132;47.162;9.470;2022-10-31T14:11:02;96653.81;;;13.90;100.00
55271;BME280;41132;47.162;9.470;2022-10-31T14:13:43;96643.03;;;13.68;100.00
55271;BME280;41132;47.162;9.470;2022-10-31T14:16:23;96634.00;;;13.63;100.00
55271;BME280;41132;47.162;9.470;2022-10-31T14:21:29;96620.00;;;13.54;100.00
55271;BME280;41132;47.162;9.470;2022-10-31T14:23:58;96635.84;;;13.46;100.00
55271;BME280;41132;47.162;9.470;2022-10-31T14:32:21;96620.56;;;13.25;100.00
55271;BME280;41132;47.162;9.470;2022-10-31T14:45:29;96624.06;;;13.09;100.00
55271;BME280;41132;47.162;9.470;2022-10-31T14:48:03;96638.38;;;13.23;100.00
55271;BME280;41132;47.162;9.470;2022-10-31T14:50:45;96638.03;;;13.26;100.00
55271;BME280;41132;47.162;9.470;2022-10-31T14:53:48;96622.41;;;13.16;100.00
55271;BME280;41132;47.162;9.470;2022-10-31T14:56:09;96618.97;;;13.15;100.00
55271;BME280;41132;47.162;9.470;2022-10-31T14:58:43;96615.66;;;13.13;100.00
55271;BME280;41132;47.162;9.470;2022-10-31T15:01:36;96616.19;;;13.01;100.00
55271;BME280;41132;47.162;9.470;2022-10-31T15:04:19;96615.00;;;13.03;100.00
55271;BME280;41132;47.162;9.470;2022-10-31T15:07:00;96605.28;;;13.12;100.00
55271;BME280;41132;47.162;9.470;2022-10-31T15:09:35;96582.44;;;13.04;100.00